createdAt,value
2023-02-11T00:00:00.179Z,40.90
2023-02-11T00:10:07.925Z,37.60
2023-02-11T00:20:15.187Z,31.60
2023-02-11T00:30:21.706Z,38.40
2023-02-11T00:40:28.657Z,38.30
2023-02-11T00:50:35.743Z,36.10
2023-02-11T01:00:42.918Z,40.80
2023-02-11T01:10:55.507Z,30.00
2023-02-11T01:21:02.897Z,29.10
2023-02-11T01:31:09.958Z,38.50
2023-02-11T01:41:17.791Z,38.20
2023-02-11T01:51:29.278Z,40.00
2023-02-11T02:01:39.270Z,31.90
2023-02-11T02:11:46.419Z,30.00
2023-02-11T02:22:00.718Z,38.40
2023-02-11T02:32:24.807Z,39.80
2023-02-11T02:42:33.354Z,39.90
2023-02-11T02:52:44.203Z,32.00
2023-02-11T03:02:58.920Z,30.40
2023-02-11T03:13:08.902Z,34.80
2023-02-11T03:33:30.449Z,36.00
2023-02-11T03:43:42.695Z,36.50
2023-02-11T03:53:52.274Z,29.00
2023-02-11T04:14:05.532Z,29.90
2023-02-11T04:24:12.610Z,34.80
2023-02-11T04:34:19.828Z,31.80
2023-02-11T04:44:27.017Z,33.10
2023-02-11T04:54:33.978Z,26.00
2023-02-11T05:04:41.688Z,26.00
2023-02-11T05:14:48.990Z,34.00
2023-02-11T05:24:56.276Z,34.60
2023-02-11T05:35:02.552Z,33.60
2023-02-11T05:45:07.319Z,25.60
2023-02-11T05:55:14.528Z,26.10
2023-02-11T06:05:21.732Z,35.20
2023-02-11T06:15:29.705Z,33.20
2023-02-11T06:25:36.736Z,35.20
2023-02-11T06:35:43.780Z,29.60
2023-02-11T06:45:53.970Z,28.40
2023-02-11T06:56:04.044Z,37.80
2023-02-11T07:06:13.803Z,38.30
2023-02-11T07:16:22.650Z,36.70
2023-02-11T07:26:30.200Z,29.00
2023-02-11T07:36:38.181Z,29.80
2023-02-11T07:46:44.856Z,32.70
2023-02-11T07:56:52.209Z,31.50
2023-02-11T08:06:59.400Z,30.50
2023-02-11T08:17:06.831Z,23.30
2023-02-11T08:27:13.970Z,25.00
2023-02-11T08:37:23.279Z,33.80
2023-02-11T08:47:30.340Z,31.10
2023-02-11T08:57:37.491Z,28.40
2023-02-11T09:07:45.265Z,20.20
2023-02-11T09:17:52.592Z,27.20
2023-02-11T09:28:00.154Z,28.10
2023-02-11T09:38:08.740Z,29.50
2023-02-11T09:48:14.712Z,23.80
2023-02-11T09:58:25.721Z,22.10
2023-02-11T10:08:36.269Z,30.10
2023-02-11T10:18:45.559Z,32.20
2023-02-11T10:28:58.050Z,23.30
2023-02-11T10:39:03.228Z,30.20
2023-02-11T10:49:10.667Z,33.00
2023-02-11T10:59:21.745Z,30.50
2023-02-11T11:09:29.098Z,22.00
2023-02-11T11:19:39.915Z,24.80
2023-02-11T11:29:47.591Z,32.80
2023-02-11T11:39:54.518Z,31.40
2023-02-11T11:50:21.620Z,27.20
2023-02-11T12:00:27.757Z,24.80
2023-02-11T12:11:01.050Z,26.60
2023-02-11T12:21:11.771Z,32.00
2023-02-11T12:31:29.353Z,27.30
2023-02-11T12:41:58.333Z,28.60
2023-02-11T12:52:12.925Z,24.60
2023-02-11T13:02:20.360Z,25.20
2023-02-11T13:12:45.936Z,33.00
2023-02-11T13:22:49.454Z,38.40
2023-02-11T13:33:20.193Z,31.00
2023-02-11T13:43:30.667Z,30.90
2023-02-11T13:53:45.612Z,26.50
2023-02-11T14:04:40.264Z,29.40
2023-02-11T14:15:02.877Z,27.70
2023-02-11T14:25:21.649Z,31.10
2023-02-11T14:35:28.545Z,29.40
2023-02-11T14:45:38.474Z,25.50
2023-02-11T14:55:48.929Z,24.40
2023-02-11T15:05:58.223Z,26.40
2023-02-11T15:16:06.772Z,30.50
2023-02-11T15:26:15.062Z,31.20
2023-02-11T15:36:25.570Z,25.50
2023-02-11T15:46:32.153Z,24.50
2023-02-11T15:56:43.635Z,24.00
2023-02-11T16:06:52.545Z,25.10
2023-02-11T16:17:00.054Z,23.40
2023-02-11T16:27:07.510Z,21.50
2023-02-11T16:37:15.038Z,25.30
2023-02-11T16:47:24.142Z,25.60
2023-02-11T16:57:35.728Z,27.50
2023-02-11T17:07:43.124Z,27.10
2023-02-11T17:17:50.599Z,25.70
2023-02-11T17:27:57.069Z,21.10
2023-02-11T17:38:04.557Z,21.40
2023-02-11T17:48:11.924Z,23.00
2023-02-11T17:58:19.141Z,21.10
2023-02-11T18:08:26.917Z,22.30
2023-02-11T18:18:34.627Z,25.70
2023-02-11T18:28:45.550Z,18.10
2023-02-11T18:38:54.497Z,24.60
2023-02-11T18:49:01.726Z,18.50
2023-02-11T18:59:09.071Z,21.50
2023-02-11T19:09:18.800Z,23.70
2023-02-11T19:29:35.429Z,13.20
2023-02-11T19:39:43.455Z,17.10
2023-02-11T19:49:49.455Z,13.70
2023-02-11T19:59:57.157Z,14.30
2023-02-11T20:10:04.841Z,11.40
2023-02-11T20:20:13.974Z,10.80
2023-02-11T20:30:20.935Z,11.60
2023-02-11T20:40:28.006Z,20.20
2023-02-11T20:50:36.657Z,16.50
2023-02-11T21:00:43.664Z,12.40
2023-02-11T21:10:50.825Z,11.80
2023-02-11T21:20:56.964Z,12.90
2023-02-11T21:31:05.489Z,12.70
2023-02-11T21:41:12.774Z,12.70
2023-02-11T21:51:22.231Z,10.70
2023-02-11T22:01:31.521Z,12.80
2023-02-11T22:11:38.909Z,11.50
2023-02-11T22:21:46.121Z,12.80
2023-02-11T22:31:53.266Z,14.10
2023-02-11T22:41:59.970Z,17.20
2023-02-11T22:52:07.717Z,21.70
2023-02-11T23:02:14.819Z,20.30
2023-02-11T23:12:22.259Z,18.70
2023-02-11T23:22:29.868Z,20.10
2023-02-11T23:32:39.384Z,18.80
2023-02-11T23:52:52.970Z,22.80
